sensor_id;sensor_type;location;lat;lon;timestamp;P1;durP1;ratioP1;P2;durP2;ratioP2
6378;SDS011;3222;48.858;10.128;2023-03-08T00:02:16;8.60;;;6.57;;
6378;SDS011;3222;48.858;10.128;2023-03-08T00:04:42;9.50;;;6.33;;
6378;SDS011;3222;48.858;10.128;2023-03-08T00:07:07;8.50;;;6.37;;
6378;SDS011;3222;48.858;10.128;2023-03-08T00:09:33;10.47;;;6.40;;
6378;SDS011;3222;48.858;10.128;2023-03-08T00:11:59;7.50;;;5.73;;
6378;SDS011;3222;48.858;10.128;2023-03-08T00:14:24;9.47;;;6.13;;
6378;SDS011;3222;48.858;10.128;2023-03-08T00:16:50;9.40;;;6.07;;
6378;SDS011;3222;48.858;10.128;2023-03-08T00:19:16;11.03;;;6.53;;
6378;SDS011;3222;48.858;10.128;2023-03-08T00:21:41;9.63;;;5.90;;
6378;SDS011;3222;48.858;10.128;2023-03-08T00:24:07;10.63;;;6.33;;
6378;SDS011;3222;48.858;10.128;2023-03-08T00:26:32;9.23;;;6.30;;
6378;SDS011;3222;48.858;10.128;2023-03-08T00:28:58;8.20;;;6.03;;
6378;SDS011;3222;48.858;10.128;2023-03-08T00:31:26;10.37;;;6.53;;
6378;SDS011;3222;48.858;10.128;2023-03-08T00:33:52;7.50;;;6.07;;
6378;SDS011;3222;48.858;10.128;2023-03-08T00:36:19;7.80;;;5.93;;
6378;SDS011;3222;48.858;10.128;2023-03-08T00:38:45;8.60;;;6.40;;
6378;SDS011;3222;48.858;10.128;2023-03-08T00:41:12;8.90;;;6.40;;
6378;SDS011;3222;48.858;10.128;2023-03-08T00:43:38;9.67;;;6.00;;
6378;SDS011;3222;48.858;10.128;2023-03-08T00:46:06;9.47;;;6.40;;
6378;SDS011;3222;48.858;10.128;2023-03-08T00:48:32;8.27;;;5.90;;
6378;SDS011;3222;48.858;10.128;2023-03-08T00:50:58;8.90;;;6.37;;
6378;SDS011;3222;48.858;10.128;2023-03-08T00:53:23;9.13;;;6.20;;
6378;SDS011;3222;48.858;10.128;2023-03-08T00:55:50;6.37;;;5.63;;
6378;SDS011;3222;48.858;10.128;2023-03-08T00:58:17;7.23;;;6.10;;
6378;SDS011;3222;48.858;10.128;2023-03-08T01:00:44;10.23;;;6.53;;
6378;SDS011;3222;48.858;10.128;2023-03-08T01:03:10;9.83;;;6.67;;
6378;SDS011;3222;48.858;10.128;2023-03-08T01:05:40;7.53;;;6.03;;
6378;SDS011;3222;48.858;10.128;2023-03-08T01:08:06;9.80;;;6.20;;
6378;SDS011;3222;48.858;10.128;2023-03-08T01:10:32;9.60;;;7.00;;
6378;SDS011;3222;48.858;10.128;2023-03-08T01:12:58;9.60;;;6.30;;
6378;SDS011;3222;48.858;10.128;2023-03-08T01:15:24;8.63;;;6.60;;
6378;SDS011;3222;48.858;10.128;2023-03-08T01:17:50;8.90;;;6.10;;
6378;SDS011;3222;48.858;10.128;2023-03-08T01:20:15;7.97;;;5.80;;
6378;SDS011;3222;48.858;10.128;2023-03-08T01:22:41;10.10;;;6.93;;
6378;SDS011;3222;48.858;10.128;2023-03-08T01:25:07;11.00;;;6.57;;
6378;SDS011;3222;48.858;10.128;2023-03-08T01:27:33;11.37;;;6.20;;
6378;SDS011;3222;48.858;10.128;2023-03-08T01:29:59;12.10;;;7.10;;
6378;SDS011;3222;48.858;10.128;2023-03-08T01:32:24;10.23;;;7.10;;
6378;SDS011;3222;48.858;10.128;2023-03-08T01:34:50;9.00;;;6.70;;
6378;SDS011;3222;48.858;10.128;2023-03-08T01:37:17;9.00;;;6.90;;
6378;SDS011;3222;48.858;10.128;2023-03-08T01:39:43;11.63;;;7.10;;
6378;SDS011;3222;48.858;10.128;2023-03-08T01:42:09;11.30;;;6.97;;
6378;SDS011;3222;48.858;10.128;2023-03-08T01:44:48;9.93;;;7.20;;
6378;SDS011;3222;48.858;10.128;2023-03-08T01:47:21;11.63;;;7.20;;
6378;SDS011;3222;48.858;10.128;2023-03-08T01:50:08;10.30;;;6.80;;
6378;SDS011;3222;48.858;10.128;2023-03-08T01:52:38;11.03;;;7.27;;
6378;SDS011;3222;48.858;10.128;2023-03-08T01:55:13;9.27;;;6.93;;
6378;SDS011;3222;48.858;10.128;2023-03-08T01:57:42;10.67;;;7.17;;
6378;SDS011;3222;48.858;10.128;2023-03-08T02:00:19;9.40;;;7.10;;
6378;SDS011;3222;48.858;10.128;2023-03-08T02:05:25;8.53;;;6.20;;
6378;SDS011;3222;48.858;10.128;2023-03-08T02:07:57;11.60;;;7.23;;
6378;SDS011;3222;48.858;10.128;2023-03-08T02:10:26;9.00;;;6.07;;
6378;SDS011;3222;48.858;10.128;2023-03-08T02:12:52;10.43;;;6.53;;
6378;SDS011;3222;48.858;10.128;2023-03-08T02:15:19;8.13;;;6.23;;
6378;SDS011;3222;48.858;10.128;2023-03-08T02:17:49;8.77;;;6.03;;
6378;SDS011;3222;48.858;10.128;2023-03-08T02:23:05;9.70;;;6.30;;
6378;SDS011;3222;48.858;10.128;2023-03-08T02:25:40;7.70;;;6.07;;
6378;SDS011;3222;48.858;10.128;2023-03-08T02:28:12;7.40;;;5.93;;
6378;SDS011;3222;48.858;10.128;2023-03-08T02:30:38;7.47;;;5.93;;
6378;SDS011;3222;48.858;10.128;2023-03-08T02:33:03;8.70;;;6.20;;
6378;SDS011;3222;48.858;10.128;2023-03-08T02:35:29;7.47;;;5.87;;
6378;SDS011;3222;48.858;10.128;2023-03-08T02:37:56;7.53;;;6.07;;
6378;SDS011;3222;48.858;10.128;2023-03-08T02:40:22;6.20;;;5.60;;
6378;SDS011;3222;48.858;10.128;2023-03-08T02:42:48;8.50;;;6.40;;
6378;SDS011;3222;48.858;10.128;2023-03-08T02:45:14;7.67;;;6.17;;
6378;SDS011;3222;48.858;10.128;2023-03-08T02:47:39;7.23;;;5.67;;
6378;SDS011;3222;48.858;10.128;2023-03-08T02:50:06;8.07;;;6.57;;
6378;SDS011;3222;48.858;10.128;2023-03-08T02:52:33;7.90;;;6.07;;
6378;SDS011;3222;48.858;10.128;2023-03-08T02:54:59;8.10;;;6.40;;
6378;SDS011;3222;48.858;10.128;2023-03-08T02:57:25;8.87;;;6.03;;
6378;SDS011;3222;48.858;10.128;2023-03-08T02:59:52;11.80;;;6.73;;
6378;SDS011;3222;48.858;10.128;2023-03-08T03:02:18;7.10;;;6.07;;
6378;SDS011;3222;48.858;10.128;2023-03-08T03:04:44;11.33;;;6.00;;
6378;SDS011;3222;48.858;10.128;2023-03-08T03:07:10;8.03;;;6.33;;
6378;SDS011;3222;48.858;10.128;2023-03-08T03:09:36;7.80;;;6.07;;
6378;SDS011;3222;48.858;10.128;2023-03-08T03:12:02;9.53;;;6.37;;
6378;SDS011;3222;48.858;10.128;2023-03-08T03:14:30;17.63;;;8.63;;
6378;SDS011;3222;48.858;10.128;2023-03-08T03:16:57;21.53;;;9.60;;
6378;SDS011;3222;48.858;10.128;2023-03-08T03:19:23;26.30;;;11.17;;
6378;SDS011;3222;48.858;10.128;2023-03-08T03:21:49;23.77;;;13.37;;
6378;SDS011;3222;48.858;10.128;2023-03-08T03:24:14;42.60;;;21.80;;
6378;SDS011;3222;48.858;10.128;2023-03-08T03:26:48;30.27;;;17.20;;
6378;SDS011;3222;48.858;10.128;2023-03-08T03:29:15;43.97;;;22.93;;
6378;SDS011;3222;48.858;10.128;2023-03-08T03:31:43;37.67;;;20.13;;
6378;SDS011;3222;48.858;10.128;2023-03-08T03:34:10;33.03;;;18.20;;
6378;SDS011;3222;48.858;10.128;2023-03-08T03:36:36;33.73;;;18.80;;
6378;SDS011;3222;48.858;10.128;2023-03-08T03:39:02;39.17;;;21.00;;
6378;SDS011;3222;48.858;10.128;2023-03-08T03:41:31;38.73;;;20.50;;
6378;SDS011;3222;48.858;10.128;2023-03-08T03:44:03;36.87;;;19.97;;
6378;SDS011;3222;48.858;10.128;2023-03-08T03:46:29;35.07;;;17.80;;
6378;SDS011;3222;48.858;10.128;2023-03-08T03:48:56;26.47;;;15.50;;
6378;SDS011;3222;48.858;10.128;2023-03-08T03:51:24;24.20;;;13.53;;
6378;SDS011;3222;48.858;10.128;2023-03-08T03:54:00;21.97;;;14.23;;
6378;SDS011;3222;48.858;10.128;2023-03-08T03:56:27;27.37;;;13.23;;
6378;SDS011;3222;48.858;10.128;2023-03-08T03:58:57;21.13;;;12.87;;
6378;SDS011;3222;48.858;10.128;2023-03-08T04:01:26;15.27;;;9.53;;
6378;SDS011;3222;48.858;10.128;2023-03-08T04:04:00;18.43;;;10.30;;
6378;SDS011;3222;48.858;10.128;2023-03-08T04:06:28;15.73;;;9.37;;
6378;SDS011;3222;48.858;10.128;2023-03-08T04:08:56;13.03;;;9.10;;
6378;SDS011;3222;48.858;10.128;2023-03-08T04:11:28;11.27;;;7.30;;
6378;SDS011;3222;48.858;10.128;2023-03-08T04:13:57;11.77;;;7.83;;
6378;SDS011;3222;48.858;10.128;2023-03-08T04:16:26;12.13;;;7.90;;
6378;SDS011;3222;48.858;10.128;2023-03-08T04:18:55;14.73;;;9.80;;
6378;SDS011;3222;48.858;10.128;2023-03-08T04:21:27;11.73;;;8.17;;
6378;SDS011;3222;48.858;10.128;2023-03-08T04:23:55;16.90;;;11.57;;
6378;SDS011;3222;48.858;10.128;2023-03-08T04:26:21;12.67;;;9.57;;
6378;SDS011;3222;48.858;10.128;2023-03-08T04:28:48;9.90;;;7.60;;
6378;SDS011;3222;48.858;10.128;2023-03-08T04:31:15;10.63;;;7.30;;
6378;SDS011;3222;48.858;10.128;2023-03-08T04:33:46;10.87;;;7.30;;
6378;SDS011;3222;48.858;10.128;2023-03-08T04:36:13;21.27;;;14.10;;
6378;SDS011;3222;48.858;10.128;2023-03-08T04:38:42;15.90;;;10.50;;
6378;SDS011;3222;48.858;10.128;2023-03-08T04:41:10;12.97;;;9.97;;
6378;SDS011;3222;48.858;10.128;2023-03-08T04:43:50;12.50;;;8.80;;
6378;SDS011;3222;48.858;10.128;2023-03-08T04:46:22;10.47;;;6.83;;
6378;SDS011;3222;48.858;10.128;2023-03-08T04:48:49;9.80;;;6.53;;
6378;SDS011;3222;48.858;10.128;2023-03-08T04:51:21;7.97;;;5.67;;
6378;SDS011;3222;48.858;10.128;2023-03-08T04:53:52;8.33;;;5.67;;
6378;SDS011;3222;48.858;10.128;2023-03-08T04:56:18;6.30;;;5.27;;
6378;SDS011;3222;48.858;10.128;2023-03-08T04:58:45;10.90;;;7.03;;
6378;SDS011;3222;48.858;10.128;2023-03-08T05:01:14;9.53;;;7.20;;
6378;SDS011;3222;48.858;10.128;2023-03-08T05:03:41;7.03;;;5.60;;
6378;SDS011;3222;48.858;10.128;2023-03-08T05:06:08;8.73;;;6.60;;
6378;SDS011;3222;48.858;10.128;2023-03-08T05:08:35;9.93;;;7.40;;
6378;SDS011;3222;48.858;10.128;2023-03-08T05:11:03;16.97;;;9.17;;
6378;SDS011;3222;48.858;10.128;2023-03-08T05:13:34;14.30;;;9.43;;
6378;SDS011;3222;48.858;10.128;2023-03-08T05:16:02;13.30;;;8.23;;
6378;SDS011;3222;48.858;10.128;2023-03-08T05:18:29;9.57;;;7.00;;
6378;SDS011;3222;48.858;10.128;2023-03-08T05:20:55;11.97;;;6.70;;
6378;SDS011;3222;48.858;10.128;2023-03-08T05:23:23;8.97;;;6.47;;
6378;SDS011;3222;48.858;10.128;2023-03-08T05:25:52;6.60;;;5.33;;
6378;SDS011;3222;48.858;10.128;2023-03-08T05:28:19;8.80;;;5.77;;
6378;SDS011;3222;48.858;10.128;2023-03-08T05:30:46;7.87;;;5.77;;
6378;SDS011;3222;48.858;10.128;2023-03-08T05:33:12;7.73;;;5.40;;
6378;SDS011;3222;48.858;10.128;2023-03-08T05:35:39;8.67;;;6.23;;
6378;SDS011;3222;48.858;10.128;2023-03-08T05:38:06;11.60;;;5.90;;
6378;SDS011;3222;48.858;10.128;2023-03-08T05:40:31;10.37;;;6.20;;
6378;SDS011;3222;48.858;10.128;2023-03-08T05:42:59;7.90;;;5.83;;
6378;SDS011;3222;48.858;10.128;2023-03-08T05:45:25;9.33;;;6.10;;
6378;SDS011;3222;48.858;10.128;2023-03-08T05:47:52;9.17;;;6.53;;
6378;SDS011;3222;48.858;10.128;2023-03-08T05:50:17;7.70;;;6.10;;
6378;SDS011;3222;48.858;10.128;2023-03-08T05:52:45;8.77;;;6.20;;
6378;SDS011;3222;48.858;10.128;2023-03-08T05:55:16;7.60;;;6.07;;
6378;SDS011;3222;48.858;10.128;2023-03-08T05:57:42;8.03;;;5.83;;
6378;SDS011;3222;48.858;10.128;2023-03-08T06:00:08;12.37;;;7.13;;
6378;SDS011;3222;48.858;10.128;2023-03-08T06:02:40;8.13;;;6.40;;
6378;SDS011;3222;48.858;10.128;2023-03-08T06:05:07;11.63;;;6.50;;
6378;SDS011;3222;48.858;10.128;2023-03-08T06:07:33;9.97;;;7.13;;
6378;SDS011;3222;48.858;10.128;2023-03-08T06:10:06;9.13;;;6.97;;
6378;SDS011;3222;48.858;10.128;2023-03-08T06:12:32;12.13;;;7.97;;
6378;SDS011;3222;48.858;10.128;2023-03-08T06:15:01;12.27;;;8.00;;
6378;SDS011;3222;48.858;10.128;2023-03-08T06:17:31;10.60;;;7.43;;
6378;SDS011;3222;48.858;10.128;2023-03-08T06:19:57;8.93;;;7.57;;
6378;SDS011;3222;48.858;10.128;2023-03-08T06:22:23;11.10;;;7.43;;
6378;SDS011;3222;48.858;10.128;2023-03-08T06:24:49;14.20;;;7.80;;
6378;SDS011;3222;48.858;10.128;2023-03-08T06:27:24;12.90;;;7.93;;
6378;SDS011;3222;48.858;10.128;2023-03-08T06:29:52;10.00;;;7.83;;
6378;SDS011;3222;48.858;10.128;2023-03-08T06:32:19;14.30;;;8.57;;
6378;SDS011;3222;48.858;10.128;2023-03-08T06:34:45;11.67;;;8.10;;
6378;SDS011;3222;48.858;10.128;2023-03-08T06:37:12;11.93;;;8.73;;
6378;SDS011;3222;48.858;10.128;2023-03-08T06:39:38;14.73;;;8.90;;
6378;SDS011;3222;48.858;10.128;2023-03-08T06:42:05;13.67;;;9.13;;
6378;SDS011;3222;48.858;10.128;2023-03-08T06:44:31;14.93;;;9.17;;
6378;SDS011;3222;48.858;10.128;2023-03-08T06:46:57;11.93;;;8.67;;
6378;SDS011;3222;48.858;10.128;2023-03-08T06:49:23;14.70;;;9.53;;
6378;SDS011;3222;48.858;10.128;2023-03-08T06:51:49;11.70;;;8.87;;
6378;SDS011;3222;48.858;10.128;2023-03-08T06:54:15;10.93;;;8.43;;
6378;SDS011;3222;48.858;10.128;2023-03-08T06:56:44;16.67;;;9.47;;
6378;SDS011;3222;48.858;10.128;2023-03-08T06:59:10;14.20;;;9.27;;
6378;SDS011;3222;48.858;10.128;2023-03-08T07:01:37;14.17;;;9.63;;
6378;SDS011;3222;48.858;10.128;2023-03-08T07:04:02;14.73;;;9.60;;
6378;SDS011;3222;48.858;10.128;2023-03-08T07:06:28;15.10;;;9.83;;
6378;SDS011;3222;48.858;10.128;2023-03-08T07:08:54;15.07;;;10.10;;
6378;SDS011;3222;48.858;10.128;2023-03-08T07:11:19;14.90;;;11.07;;
6378;SDS011;3222;48.858;10.128;2023-03-08T07:13:45;15.23;;;10.70;;
6378;SDS011;3222;48.858;10.128;2023-03-08T07:16:11;17.73;;;11.80;;
6378;SDS011;3222;48.858;10.128;2023-03-08T07:18:38;16.33;;;11.70;;
6378;SDS011;3222;48.858;10.128;2023-03-08T07:21:04;16.60;;;11.47;;
6378;SDS011;3222;48.858;10.128;2023-03-08T07:23:30;14.80;;;10.63;;
6378;SDS011;3222;48.858;10.128;2023-03-08T07:25:56;17.50;;;12.10;;
6378;SDS011;3222;48.858;10.128;2023-03-08T07:28:22;20.53;;;11.87;;
6378;SDS011;3222;48.858;10.128;2023-03-08T07:30:48;18.37;;;12.23;;
6378;SDS011;3222;48.858;10.128;2023-03-08T07:33:17;18.17;;;11.50;;
6378;SDS011;3222;48.858;10.128;2023-03-08T07:35:43;16.23;;;11.53;;
6378;SDS011;3222;48.858;10.128;2023-03-08T07:38:10;17.77;;;11.93;;
6378;SDS011;3222;48.858;10.128;2023-03-08T07:40:36;18.63;;;12.87;;
6378;SDS011;3222;48.858;10.128;2023-03-08T07:43:02;19.00;;;11.83;;
6378;SDS011;3222;48.858;10.128;2023-03-08T07:45:57;19.47;;;12.53;;
6378;SDS011;3222;48.858;10.128;2023-03-08T07:48:24;18.80;;;12.13;;
6378;SDS011;3222;48.858;10.128;2023-03-08T07:50:49;17.50;;;11.67;;
6378;SDS011;3222;48.858;10.128;2023-03-08T07:53:15;17.40;;;12.03;;
6378;SDS011;3222;48.858;10.128;2023-03-08T07:55:40;19.07;;;12.27;;
6378;SDS011;3222;48.858;10.128;2023-03-08T07:58:06;17.30;;;12.63;;
6378;SDS011;3222;48.858;10.128;2023-03-08T08:00:32;14.60;;;10.87;;
6378;SDS011;3222;48.858;10.128;2023-03-08T08:02:57;18.17;;;12.30;;
6378;SDS011;3222;48.858;10.128;2023-03-08T08:05:23;17.00;;;11.90;;
6378;SDS011;3222;48.858;10.128;2023-03-08T08:07:48;24.67;;;13.00;;
6378;SDS011;3222;48.858;10.128;2023-03-08T08:10:14;19.00;;;12.03;;
6378;SDS011;3222;48.858;10.128;2023-03-08T08:12:40;21.70;;;12.50;;
6378;SDS011;3222;48.858;10.128;2023-03-08T08:15:06;17.97;;;12.03;;
6378;SDS011;3222;48.858;10.128;2023-03-08T08:17:32;16.53;;;11.80;;
6378;SDS011;3222;48.858;10.128;2023-03-08T08:19:57;19.97;;;11.87;;
6378;SDS011;3222;48.858;10.128;2023-03-08T08:22:23;19.50;;;12.40;;
6378;SDS011;3222;48.858;10.128;2023-03-08T08:24:49;18.40;;;12.43;;
6378;SDS011;3222;48.858;10.128;2023-03-08T08:27:15;17.50;;;11.57;;
6378;SDS011;3222;48.858;10.128;2023-03-08T08:29:40;21.03;;;11.83;;
6378;SDS011;3222;48.858;10.128;2023-03-08T08:32:10;17.27;;;11.57;;
6378;SDS011;3222;48.858;10.128;2023-03-08T08:34:35;19.67;;;11.57;;
6378;SDS011;3222;48.858;10.128;2023-03-08T08:37:01;16.77;;;10.70;;
6378;SDS011;3222;48.858;10.128;2023-03-08T08:39:27;17.33;;;11.23;;
6378;SDS011;3222;48.858;10.128;2023-03-08T08:41:52;16.10;;;11.00;;
6378;SDS011;3222;48.858;10.128;2023-03-08T08:44:18;17.13;;;12.17;;
6378;SDS011;3222;48.858;10.128;2023-03-08T08:46:44;15.93;;;11.30;;
6378;SDS011;3222;48.858;10.128;2023-03-08T08:49:09;17.37;;;11.83;;
6378;SDS011;3222;48.858;10.128;2023-03-08T08:51:35;18.53;;;11.70;;
6378;SDS011;3222;48.858;10.128;2023-03-08T08:54:00;15.53;;;10.70;;
6378;SDS011;3222;48.858;10.128;2023-03-08T08:56:27;15.83;;;9.83;;
6378;SDS011;3222;48.858;10.128;2023-03-08T08:59:01;16.07;;;11.20;;
6378;SDS011;3222;48.858;10.128;2023-03-08T09:01:28;19.13;;;11.33;;
6378;SDS011;3222;48.858;10.128;2023-03-08T09:03:55;13.57;;;10.27;;
6378;SDS011;3222;48.858;10.128;2023-03-08T09:06:23;18.33;;;11.10;;
6378;SDS011;3222;48.858;10.128;2023-03-08T09:08:53;19.33;;;12.53;;
6378;SDS011;3222;48.858;10.128;2023-03-08T09:11:21;16.20;;;11.13;;
6378;SDS011;3222;48.858;10.128;2023-03-08T09:13:47;19.00;;;11.97;;
6378;SDS011;3222;48.858;10.128;2023-03-08T09:16:17;15.80;;;11.30;;
6378;SDS011;3222;48.858;10.128;2023-03-08T09:18:43;16.40;;;10.77;;
6378;SDS011;3222;48.858;10.128;2023-03-08T09:21:09;17.17;;;11.07;;
6378;SDS011;3222;48.858;10.128;2023-03-08T09:23:35;16.90;;;11.13;;
6378;SDS011;3222;48.858;10.128;2023-03-08T09:26:00;17.70;;;11.10;;
6378;SDS011;3222;48.858;10.128;2023-03-08T09:28:28;17.53;;;11.10;;
6378;SDS011;3222;48.858;10.128;2023-03-08T09:30:54;19.53;;;12.20;;
6378;SDS011;3222;48.858;10.128;2023-03-08T09:33:20;14.03;;;9.87;;
6378;SDS011;3222;48.858;10.128;2023-03-08T09:35:56;18.17;;;10.97;;
6378;SDS011;3222;48.858;10.128;2023-03-08T09:38:22;18.43;;;11.13;;
6378;SDS011;3222;48.858;10.128;2023-03-08T09:41:01;17.03;;;11.47;;
6378;SDS011;3222;48.858;10.128;2023-03-08T09:46:33;22.33;;;12.57;;
6378;SDS011;3222;48.858;10.128;2023-03-08T09:49:04;17.90;;;11.73;;
6378;SDS011;3222;48.858;10.128;2023-03-08T09:51:37;17.77;;;11.43;;
6378;SDS011;3222;48.858;10.128;2023-03-08T09:54:11;15.10;;;10.07;;
6378;SDS011;3222;48.858;10.128;2023-03-08T09:56:41;16.60;;;11.13;;
6378;SDS011;3222;48.858;10.128;2023-03-08T10:09:34;14.97;;;10.93;;
6378;SDS011;3222;48.858;10.128;2023-03-08T10:14:52;16.90;;;11.00;;
6378;SDS011;3222;48.858;10.128;2023-03-08T10:17:23;15.83;;;10.70;;
6378;SDS011;3222;48.858;10.128;2023-03-08T10:19:56;16.50;;;11.53;;
6378;SDS011;3222;48.858;10.128;2023-03-08T10:22:31;16.40;;;10.87;;
6378;SDS011;3222;48.858;10.128;2023-03-08T10:27:50;16.97;;;11.27;;
6378;SDS011;3222;48.858;10.128;2023-03-08T10:30:19;19.77;;;11.60;;
6378;SDS011;3222;48.858;10.128;2023-03-08T10:32:48;15.00;;;10.60;;
6378;SDS011;3222;48.858;10.128;2023-03-08T10:35:16;15.57;;;11.50;;
6378;SDS011;3222;48.858;10.128;2023-03-08T10:37:44;15.73;;;11.17;;
6378;SDS011;3222;48.858;10.128;2023-03-08T10:40:16;17.03;;;11.00;;
6378;SDS011;3222;48.858;10.128;2023-03-08T10:42:46;15.13;;;10.50;;
6378;SDS011;3222;48.858;10.128;2023-03-08T10:45:17;18.13;;;11.70;;
6378;SDS011;3222;48.858;10.128;2023-03-08T10:47:59;17.83;;;10.83;;
6378;SDS011;3222;48.858;10.128;2023-03-08T10:50:31;15.70;;;9.93;;
6378;SDS011;3222;48.858;10.128;2023-03-08T10:53:08;14.27;;;10.37;;
6378;SDS011;3222;48.858;10.128;2023-03-08T10:55:42;15.50;;;9.83;;
6378;SDS011;3222;48.858;10.128;2023-03-08T11:00:51;12.90;;;9.13;;
6378;SDS011;3222;48.858;10.128;2023-03-08T11:03:19;12.80;;;8.33;;
6378;SDS011;3222;48.858;10.128;2023-03-08T11:05:51;14.27;;;9.27;;
6378;SDS011;3222;48.858;10.128;2023-03-08T11:08:19;13.10;;;9.13;;
6378;SDS011;3222;48.858;10.128;2023-03-08T11:10:47;14.27;;;9.33;;
6378;SDS011;3222;48.858;10.128;2023-03-08T11:13:28;13.43;;;9.00;;
6378;SDS011;3222;48.858;10.128;2023-03-08T11:16:00;11.77;;;8.47;;
6378;SDS011;3222;48.858;10.128;2023-03-08T11:21:12;11.13;;;7.70;;
6378;SDS011;3222;48.858;10.128;2023-03-08T11:24:08;10.50;;;8.17;;
6378;SDS011;3222;48.858;10.128;2023-03-08T11:29:39;9.70;;;7.37;;
6378;SDS011;3222;48.858;10.128;2023-03-08T11:37:40;8.23;;;6.73;;
6378;SDS011;3222;48.858;10.128;2023-03-08T11:45:28;10.83;;;7.37;;
6378;SDS011;3222;48.858;10.128;2023-03-08T11:50:36;10.27;;;7.00;;
6378;SDS011;3222;48.858;10.128;2023-03-08T11:53:26;9.80;;;6.90;;
6378;SDS011;3222;48.858;10.128;2023-03-08T12:01:24;10.20;;;6.70;;
6378;SDS011;3222;48.858;10.128;2023-03-08T12:03:57;12.23;;;7.80;;
6378;SDS011;3222;48.858;10.128;2023-03-08T12:06:32;9.73;;;6.97;;
6378;SDS011;3222;48.858;10.128;2023-03-08T12:11:39;8.10;;;6.20;;
6378;SDS011;3222;48.858;10.128;2023-03-08T12:14:19;5.53;;;4.33;;
6378;SDS011;3222;48.858;10.128;2023-03-08T12:19:18;4.80;;;4.30;;
6378;SDS011;3222;48.858;10.128;2023-03-08T12:24:54;3.13;;;2.83;;
6378;SDS011;3222;48.858;10.128;2023-03-08T12:27:35;3.70;;;2.80;;
6378;SDS011;3222;48.858;10.128;2023-03-08T12:33:00;3.63;;;2.43;;
6378;SDS011;3222;48.858;10.128;2023-03-08T12:35:29;2.20;;;2.10;;
6378;SDS011;3222;48.858;10.128;2023-03-08T12:38:00;2.20;;;2.00;;
6378;SDS011;3222;48.858;10.128;2023-03-08T12:45:44;2.57;;;2.20;;
6378;SDS011;3222;48.858;10.128;2023-03-08T12:53:23;3.40;;;2.17;;
6378;SDS011;3222;48.858;10.128;2023-03-08T12:58:24;2.10;;;1.90;;
6378;SDS011;3222;48.858;10.128;2023-03-08T13:00:56;2.50;;;2.30;;
6378;SDS011;3222;48.858;10.128;2023-03-08T13:03:37;2.13;;;1.70;;
6378;SDS011;3222;48.858;10.128;2023-03-08T13:08:52;1.70;;;1.60;;
6378;SDS011;3222;48.858;10.128;2023-03-08T13:11:26;3.20;;;1.87;;
6378;SDS011;3222;48.858;10.128;2023-03-08T13:14:03;1.70;;;1.60;;
6378;SDS011;3222;48.858;10.128;2023-03-08T13:22:11;1.87;;;1.67;;
6378;SDS011;3222;48.858;10.128;2023-03-08T13:24:42;2.07;;;1.80;;
6378;SDS011;3222;48.858;10.128;2023-03-08T13:30:15;1.70;;;1.60;;
6378;SDS011;3222;48.858;10.128;2023-03-08T13:32:58;2.10;;;1.60;;
6378;SDS011;3222;48.858;10.128;2023-03-08T13:35:25;1.70;;;1.60;;
6378;SDS011;3222;48.858;10.128;2023-03-08T13:37:55;2.17;;;1.60;;
6378;SDS011;3222;48.858;10.128;2023-03-08T13:40:24;2.10;;;1.97;;
6378;SDS011;3222;48.858;10.128;2023-03-08T13:42:55;3.30;;;2.00;;
6378;SDS011;3222;48.858;10.128;2023-03-08T13:45:23;1.73;;;1.63;;
6378;SDS011;3222;48.858;10.128;2023-03-08T13:47:49;1.60;;;1.53;;
6378;SDS011;3222;48.858;10.128;2023-03-08T13:50:16;1.70;;;1.60;;
6378;SDS011;3222;48.858;10.128;2023-03-08T13:52:45;1.60;;;1.50;;
6378;SDS011;3222;48.858;10.128;2023-03-08T13:55:14;1.70;;;1.60;;
6378;SDS011;3222;48.858;10.128;2023-03-08T13:57:48;2.87;;;1.50;;
6378;SDS011;3222;48.858;10.128;2023-03-08T14:00:22;2.23;;;1.50;;
6378;SDS011;3222;48.858;10.128;2023-03-08T14:02:59;2.73;;;1.80;;
6378;SDS011;3222;48.858;10.128;2023-03-08T14:05:28;1.80;;;1.70;;
6378;SDS011;3222;48.858;10.128;2023-03-08T14:10:23;2.23;;;2.03;;
6378;SDS011;3222;48.858;10.128;2023-03-08T14:12:54;2.87;;;2.57;;
6378;SDS011;3222;48.858;10.128;2023-03-08T14:15:20;2.90;;;2.40;;
6378;SDS011;3222;48.858;10.128;2023-03-08T14:17:46;2.03;;;1.90;;
6378;SDS011;3222;48.858;10.128;2023-03-08T14:20:15;2.13;;;1.93;;
6378;SDS011;3222;48.858;10.128;2023-03-08T14:22:47;1.60;;;1.50;;
6378;SDS011;3222;48.858;10.128;2023-03-08T14:25:28;1.80;;;1.70;;
6378;SDS011;3222;48.858;10.128;2023-03-08T14:27:55;1.50;;;1.40;;
6378;SDS011;3222;48.858;10.128;2023-03-08T14:30:22;1.57;;;1.47;;
6378;SDS011;3222;48.858;10.128;2023-03-08T14:32:58;1.70;;;1.50;;
6378;SDS011;3222;48.858;10.128;2023-03-08T14:35:31;2.60;;;1.53;;
6378;SDS011;3222;48.858;10.128;2023-03-08T14:38:02;1.20;;;1.20;;
6378;SDS011;3222;48.858;10.128;2023-03-08T14:40:57;1.70;;;1.60;;
6378;SDS011;3222;48.858;10.128;2023-03-08T14:43:27;1.37;;;1.27;;
6378;SDS011;3222;48.858;10.128;2023-03-08T14:48:38;1.50;;;1.40;;
6378;SDS011;3222;48.858;10.128;2023-03-08T14:51:04;1.70;;;1.50;;
6378;SDS011;3222;48.858;10.128;2023-03-08T14:54:01;2.10;;;1.53;;
6378;SDS011;3222;48.858;10.128;2023-03-08T14:56:30;1.60;;;1.50;;
6378;SDS011;3222;48.858;10.128;2023-03-08T14:58:58;1.27;;;1.27;;
6378;SDS011;3222;48.858;10.128;2023-03-08T15:01:29;1.30;;;1.20;;
6378;SDS011;3222;48.858;10.128;2023-03-08T15:03:58;1.13;;;1.10;;
6378;SDS011;3222;48.858;10.128;2023-03-08T15:06:26;1.57;;;1.47;;
6378;SDS011;3222;48.858;10.128;2023-03-08T15:08:54;1.70;;;1.50;;
6378;SDS011;3222;48.858;10.128;2023-03-08T15:11:21;1.20;;;1.20;;
6378;SDS011;3222;48.858;10.128;2023-03-08T15:13:47;2.87;;;2.10;;
6378;SDS011;3222;48.858;10.128;2023-03-08T15:16:14;6.17;;;3.83;;
6378;SDS011;3222;48.858;10.128;2023-03-08T15:18:39;11.93;;;7.33;;
6378;SDS011;3222;48.858;10.128;2023-03-08T15:21:05;7.97;;;5.13;;
6378;SDS011;3222;48.858;10.128;2023-03-08T15:23:35;9.53;;;5.40;;
6378;SDS011;3222;48.858;10.128;2023-03-08T15:26:03;10.43;;;4.97;;
6378;SDS011;3222;48.858;10.128;2023-03-08T15:28:30;7.07;;;4.63;;
6378;SDS011;3222;48.858;10.128;2023-03-08T15:30:56;7.60;;;4.67;;
6378;SDS011;3222;48.858;10.128;2023-03-08T15:33:22;8.00;;;4.53;;
6378;SDS011;3222;48.858;10.128;2023-03-08T15:35:47;4.63;;;3.80;;
6378;SDS011;3222;48.858;10.128;2023-03-08T15:38:15;5.97;;;4.20;;
6378;SDS011;3222;48.858;10.128;2023-03-08T15:40:41;6.83;;;4.20;;
6378;SDS011;3222;48.858;10.128;2023-03-08T15:43:07;6.30;;;4.60;;
6378;SDS011;3222;48.858;10.128;2023-03-08T15:45:33;4.33;;;3.40;;
6378;SDS011;3222;48.858;10.128;2023-03-08T15:48:00;2.80;;;2.60;;
6378;SDS011;3222;48.858;10.128;2023-03-08T15:50:28;3.50;;;3.20;;
6378;SDS011;3222;48.858;10.128;2023-03-08T15:52:55;3.13;;;2.83;;
6378;SDS011;3222;48.858;10.128;2023-03-08T15:55:22;3.73;;;3.33;;
6378;SDS011;3222;48.858;10.128;2023-03-08T15:57:48;3.80;;;3.43;;
6378;SDS011;3222;48.858;10.128;2023-03-08T16:00:15;3.33;;;2.97;;
6378;SDS011;3222;48.858;10.128;2023-03-08T16:02:42;3.30;;;3.00;;
6378;SDS011;3222;48.858;10.128;2023-03-08T16:05:09;2.40;;;2.20;;
6378;SDS011;3222;48.858;10.128;2023-03-08T16:07:36;2.30;;;2.10;;
6378;SDS011;3222;48.858;10.128;2023-03-08T16:10:02;2.33;;;2.13;;
6378;SDS011;3222;48.858;10.128;2023-03-08T16:12:30;2.10;;;2.00;;
6378;SDS011;3222;48.858;10.128;2023-03-08T16:14:55;2.20;;;1.67;;
6378;SDS011;3222;48.858;10.128;2023-03-08T16:17:22;1.90;;;1.80;;
6378;SDS011;3222;48.858;10.128;2023-03-08T16:19:51;1.93;;;1.70;;
6378;SDS011;3222;48.858;10.128;2023-03-08T16:22:17;1.87;;;1.77;;
6378;SDS011;3222;48.858;10.128;2023-03-08T16:24:43;2.10;;;1.70;;
6378;SDS011;3222;48.858;10.128;2023-03-08T16:27:09;1.97;;;1.60;;
6378;SDS011;3222;48.858;10.128;2023-03-08T16:29:35;1.70;;;1.60;;
6378;SDS011;3222;48.858;10.128;2023-03-08T16:32:01;2.47;;;1.60;;